sensor_id;sensor_type;location;lat;lon;timestamp;pressure;altitude;pressure_sealevel;temperature;humidity
5755;BME280;2902;42.130;24.732;2023-12-29T00:00:10;100176.53;;;5.36;82.50
5755;BME280;2902;42.130;24.732;2023-12-29T00:02:37;100177.06;;;5.39;82.24
5755;BME280;2902;42.130;24.732;2023-12-29T00:05:06;100179.69;;;5.39;82.45
5755;BME280;2902;42.130;24.732;2023-12-29T00:07:33;100177.75;;;5.41;82.08
5755;BME280;2902;42.130;24.732;2023-12-29T00:10:00;100171.78;;;5.39;81.40
5755;BME280;2902;42.130;24.732;2023-12-29T00:12:26;100174.50;;;5.47;81.32
5755;BME280;2902;42.130;24.732;2023-12-29T00:14:53;100171.22;;;5.45;81.36
5755;BME280;2902;42.130;24.732;2023-12-29T00:17:20;100170.22;;;5.46;80.83
5755;BME280;2902;42.130;24.732;2023-12-29T00:19:46;100162.63;;;5.43;81.55
5755;BME280;2902;42.130;24.732;2023-12-29T00:22:14;100160.69;;;5.45;81.73
5755;BME280;2902;42.130;24.732;2023-12-29T00:24:41;100161.50;;;5.46;81.95
5755;BME280;2902;42.130;24.732;2023-12-29T00:27:08;100162.63;;;5.43;81.90
5755;BME280;2902;42.130;24.732;2023-12-29T00:29:34;100157.88;;;5.47;81.37
5755;BME280;2902;42.130;24.732;2023-12-29T00:32:00;100167.31;;;5.49;81.77
5755;BME280;2902;42.130;24.732;2023-12-29T00:34:27;100165.34;;;5.51;81.30
5755;BME280;2902;42.130;24.732;2023-12-29T00:36:54;100163.97;;;5.47;81.23
5755;BME280;2902;42.130;24.732;2023-12-29T00:39:22;100158.22;;;5.34;81.83
5755;BME280;2902;42.130;24.732;2023-12-29T00:41:54;100157.38;;;5.34;82.18
5755;BME280;2902;42.130;24.732;2023-12-29T00:44:21;100153.38;;;5.30;83.21
5755;BME280;2902;42.130;24.732;2023-12-29T00:46:48;100159.88;;;5.35;82.45
5755;BME280;2902;42.130;24.732;2023-12-29T00:49:15;100156.69;;;5.41;81.40
5755;BME280;2902;42.130;24.732;2023-12-29T00:51:41;100159.00;;;5.44;81.43
5755;BME280;2902;42.130;24.732;2023-12-29T00:54:08;100151.09;;;5.44;81.50
5755;BME280;2902;42.130;24.732;2023-12-29T00:56:36;100139.88;;;5.42;80.63
5755;BME280;2902;42.130;24.732;2023-12-29T00:59:03;100150.66;;;5.49;81.06
5755;BME280;2902;42.130;24.732;2023-12-29T01:01:33;100148.16;;;5.47;80.72
5755;BME280;2902;42.130;24.732;2023-12-29T01:04:00;100143.59;;;5.49;80.97
5755;BME280;2902;42.130;24.732;2023-12-29T01:06:27;100139.13;;;5.50;80.91
5755;BME280;2902;42.130;24.732;2023-12-29T01:08:54;100139.97;;;5.50;80.71
5755;BME280;2902;42.130;24.732;2023-12-29T01:11:20;100135.69;;;5.49;80.60
5755;BME280;2902;42.130;24.732;2023-12-29T01:13:48;100130.44;;;5.49;80.90
5755;BME280;2902;42.130;24.732;2023-12-29T01:16:15;100125.16;;;5.49;80.79
5755;BME280;2902;42.130;24.732;2023-12-29T01:18:42;100117.25;;;5.49;81.14
5755;BME280;2902;42.130;24.732;2023-12-29T01:21:08;100121.16;;;5.45;81.37
5755;BME280;2902;42.130;24.732;2023-12-29T01:23:35;100106.13;;;5.28;81.00
5755;BME280;2902;42.130;24.732;2023-12-29T01:26:02;100103.41;;;5.20;82.20
5755;BME280;2902;42.130;24.732;2023-12-29T01:28:29;100106.44;;;5.25;82.54
5755;BME280;2902;42.130;24.732;2023-12-29T01:30:57;100104.94;;;5.23;81.98
5755;BME280;2902;42.130;24.732;2023-12-29T01:33:23;100107.84;;;5.20;81.32
5755;BME280;2902;42.130;24.732;2023-12-29T01:35:50;100104.38;;;5.19;81.49
5755;BME280;2902;42.130;24.732;2023-12-29T01:38:17;100119.03;;;5.04;82.14
5755;BME280;2902;42.130;24.732;2023-12-29T01:40:44;100111.97;;;4.95;82.30
5755;BME280;2902;42.130;24.732;2023-12-29T01:43:11;100108.41;;;4.96;82.59
5755;BME280;2902;42.130;24.732;2023-12-29T01:45:37;100105.59;;;4.98;82.35
5755;BME280;2902;42.130;24.732;2023-12-29T01:48:07;100102.69;;;5.01;82.23
5755;BME280;2902;42.130;24.732;2023-12-29T01:50:35;100102.16;;;4.97;81.81
5755;BME280;2902;42.130;24.732;2023-12-29T01:53:03;100102.16;;;4.97;82.10
5755;BME280;2902;42.130;24.732;2023-12-29T01:55:30;100091.38;;;4.91;81.83
5755;BME280;2902;42.130;24.732;2023-12-29T01:57:58;100093.31;;;4.89;82.65
5755;BME280;2902;42.130;24.732;2023-12-29T02:00:25;100104.41;;;4.92;82.53
5755;BME280;2902;42.130;24.732;2023-12-29T02:02:53;100114.81;;;4.84;82.46
5755;BME280;2902;42.130;24.732;2023-12-29T02:05:23;100112.25;;;4.65;82.83
5755;BME280;2902;42.130;24.732;2023-12-29T02:07:52;100104.25;;;4.57;84.19
5755;BME280;2902;42.130;24.732;2023-12-29T02:10:19;100117.50;;;4.65;84.07
5755;BME280;2902;42.130;24.732;2023-12-29T02:12:47;100097.06;;;4.59;83.49
5755;BME280;2902;42.130;24.732;2023-12-29T02:15:15;100108.34;;;4.69;83.47
5755;BME280;2902;42.130;24.732;2023-12-29T02:17:47;100117.09;;;4.70;83.45
5755;BME280;2902;42.130;24.732;2023-12-29T02:20:17;100107.56;;;4.59;82.82
5755;BME280;2902;42.130;24.732;2023-12-29T02:22:45;100110.91;;;4.52;83.61
5755;BME280;2902;42.130;24.732;2023-12-29T02:25:14;100108.41;;;4.50;84.09
5755;BME280;2902;42.130;24.732;2023-12-29T02:27:45;100110.38;;;4.39;83.98
5755;BME280;2902;42.130;24.732;2023-12-29T02:30:21;100095.19;;;4.23;83.79
5755;BME280;2902;42.130;24.732;2023-12-29T02:32:49;100100.34;;;4.06;84.69
5755;BME280;2902;42.130;24.732;2023-12-29T02:35:19;100101.84;;;3.89;85.26
5755;BME280;2902;42.130;24.732;2023-12-29T02:37:47;100102.69;;;3.80;86.64
5755;BME280;2902;42.130;24.732;2023-12-29T02:40:15;100091.09;;;3.73;87.22
5755;BME280;2902;42.130;24.732;2023-12-29T02:42:46;100099.38;;;3.78;87.22
5755;BME280;2902;42.130;24.732;2023-12-29T02:45:13;100086.09;;;3.70;86.95
5755;BME280;2902;42.130;24.732;2023-12-29T02:47:41;100093.44;;;3.57;87.48
5755;BME280;2902;42.130;24.732;2023-12-29T02:50:08;100082.22;;;3.55;88.45
5755;BME280;2902;42.130;24.732;2023-12-29T02:52:35;100081.41;;;3.64;88.85
5755;BME280;2902;42.130;24.732;2023-12-29T02:55:03;100087.75;;;3.71;89.08
5755;BME280;2902;42.130;24.732;2023-12-29T02:57:31;100079.88;;;3.71;87.96
5755;BME280;2902;42.130;24.732;2023-12-29T02:59:58;100074.75;;;3.70;87.64
5755;BME280;2902;42.130;24.732;2023-12-29T03:02:24;100065.38;;;3.67;88.61
5755;BME280;2902;42.130;24.732;2023-12-29T03:04:51;100063.84;;;3.74;88.72
5755;BME280;2902;42.130;24.732;2023-12-29T03:07:18;100067.84;;;3.78;87.43
5755;BME280;2902;42.130;24.732;2023-12-29T03:09:45;100051.25;;;3.68;87.33
5755;BME280;2902;42.130;24.732;2023-12-29T03:12:11;100053.47;;;3.63;87.33
5755;BME280;2902;42.130;24.732;2023-12-29T03:14:39;100055.56;;;3.60;87.53
5755;BME280;2902;42.130;24.732;2023-12-29T03:17:06;100056.38;;;3.60;87.52
5755;BME280;2902;42.130;24.732;2023-12-29T03:19:33;100050.03;;;3.53;86.76
5755;BME280;2902;42.130;24.732;2023-12-29T03:21:59;100052.09;;;3.59;87.15
5755;BME280;2902;42.130;24.732;2023-12-29T03:24:26;100050.31;;;3.60;87.80
5755;BME280;2902;42.130;24.732;2023-12-29T03:26:53;100043.69;;;3.65;86.47
5755;BME280;2902;42.130;24.732;2023-12-29T03:29:20;100045.88;;;3.60;86.51
5755;BME280;2902;42.130;24.732;2023-12-29T03:31:48;100044.06;;;3.51;87.34
5755;BME280;2902;42.130;24.732;2023-12-29T03:34:14;100043.22;;;3.60;87.97
5755;BME280;2902;42.130;24.732;2023-12-29T03:36:41;100045.72;;;3.71;88.03
5755;BME280;2902;42.130;24.732;2023-12-29T03:39:08;100045.88;;;3.79;87.04
5755;BME280;2902;42.130;24.732;2023-12-29T03:41:34;100037.41;;;3.85;86.75
5755;BME280;2902;42.130;24.732;2023-12-29T03:44:01;100046.00;;;3.87;85.64
5755;BME280;2902;42.130;24.732;2023-12-29T03:46:28;100037.84;;;3.90;84.99
5755;BME280;2902;42.130;24.732;2023-12-29T03:48:56;100039.75;;;3.88;84.54
5755;BME280;2902;42.130;24.732;2023-12-29T03:51:23;100037.00;;;3.80;85.93
5755;BME280;2902;42.130;24.732;2023-12-29T03:53:50;100029.38;;;3.87;86.09
5755;BME280;2902;42.130;24.732;2023-12-29T03:56:18;100037.69;;;3.92;85.93
5755;BME280;2902;42.130;24.732;2023-12-29T03:58:45;100033.97;;;3.94;86.29
5755;BME280;2902;42.130;24.732;2023-12-29T04:01:13;100037.41;;;3.95;85.04
5755;BME280;2902;42.130;24.732;2023-12-29T04:03:40;100023.31;;;3.86;85.78
5755;BME280;2902;42.130;24.732;2023-12-29T04:06:08;100027.72;;;3.95;85.17
5755;BME280;2902;42.130;24.732;2023-12-29T04:08:35;100028.28;;;3.89;84.19
5755;BME280;2902;42.130;24.732;2023-12-29T04:11:03;99995.81;;;3.71;84.11
5755;BME280;2902;42.130;24.732;2023-12-29T04:13:30;100035.22;;;3.71;85.16
5755;BME280;2902;42.130;24.732;2023-12-29T04:15:57;100031.66;;;3.63;85.85
5755;BME280;2902;42.130;24.732;2023-12-29T04:18:24;100021.97;;;3.63;86.68
5755;BME280;2902;42.130;24.732;2023-12-29T04:20:51;100031.22;;;3.67;87.16
5755;BME280;2902;42.130;24.732;2023-12-29T04:23:19;100023.88;;;3.71;86.32
5755;BME280;2902;42.130;24.732;2023-12-29T04:25:45;100023.34;;;3.77;86.53
5755;BME280;2902;42.130;24.732;2023-12-29T04:28:12;100016.97;;;3.79;85.88
5755;BME280;2902;42.130;24.732;2023-12-29T04:30:39;100016.69;;;3.82;85.35
5755;BME280;2902;42.130;24.732;2023-12-29T04:33:07;100004.41;;;3.64;85.25
5755;BME280;2902;42.130;24.732;2023-12-29T04:35:34;100027.22;;;3.63;85.75
5755;BME280;2902;42.130;24.732;2023-12-29T04:38:00;100001.78;;;3.54;86.57
5755;BME280;2902;42.130;24.732;2023-12-29T04:40:28;100009.53;;;3.65;86.79
5755;BME280;2902;42.130;24.732;2023-12-29T04:42:55;100015.06;;;3.62;87.20
5755;BME280;2902;42.130;24.732;2023-12-29T04:45:22;100024.97;;;3.68;86.32
5755;BME280;2902;42.130;24.732;2023-12-29T04:47:48;100025.81;;;3.59;85.79
5755;BME280;2902;42.130;24.732;2023-12-29T04:50:15;100031.09;;;3.59;85.68
5755;BME280;2902;42.130;24.732;2023-12-29T04:52:42;100023.78;;;3.63;86.76
5755;BME280;2902;42.130;24.732;2023-12-29T04:55:09;100025.81;;;3.59;86.40
5755;BME280;2902;42.130;24.732;2023-12-29T04:57:38;100026.53;;;3.61;86.69
5755;BME280;2902;42.130;24.732;2023-12-29T05:00:06;100029.28;;;3.50;85.61
5755;BME280;2902;42.130;24.732;2023-12-29T05:02:33;100025.00;;;3.49;86.60
5755;BME280;2902;42.130;24.732;2023-12-29T05:05:00;100021.81;;;3.55;86.71
5755;BME280;2902;42.130;24.732;2023-12-29T05:07:27;100019.59;;;3.60;86.84
5755;BME280;2902;42.130;24.732;2023-12-29T05:09:53;100015.19;;;3.61;86.86
5755;BME280;2902;42.130;24.732;2023-12-29T05:12:20;100025.97;;;3.67;86.46
5755;BME280;2902;42.130;24.732;2023-12-29T05:14:48;100022.34;;;3.68;85.70
5755;BME280;2902;42.130;24.732;2023-12-29T05:17:15;100017.94;;;3.69;85.01
5755;BME280;2902;42.130;24.732;2023-12-29T05:19:42;100028.03;;;3.64;85.36
5755;BME280;2902;42.130;24.732;2023-12-29T05:22:08;100030.53;;;3.65;85.00
5755;BME280;2902;42.130;24.732;2023-12-29T05:24:37;100025.28;;;3.65;85.15
5755;BME280;2902;42.130;24.732;2023-12-29T05:27:04;100007.03;;;3.54;84.35
5755;BME280;2902;42.130;24.732;2023-12-29T05:29:30;100023.78;;;3.53;85.38
5755;BME280;2902;42.130;24.732;2023-12-29T05:31:58;100016.69;;;3.44;85.52
5755;BME280;2902;42.130;24.732;2023-12-29T05:34:27;100021.69;;;3.47;86.67
5755;BME280;2902;42.130;24.732;2023-12-29T05:36:54;100027.50;;;3.51;87.32
5755;BME280;2902;42.130;24.732;2023-12-29T05:39:21;100032.59;;;3.52;86.71
5755;BME280;2902;42.130;24.732;2023-12-29T05:41:47;100024.59;;;3.54;86.04
5755;BME280;2902;42.130;24.732;2023-12-29T05:44:14;100027.63;;;3.49;84.95
5755;BME280;2902;42.130;24.732;2023-12-29T05:46:46;100027.78;;;3.57;84.89
5755;BME280;2902;42.130;24.732;2023-12-29T05:49:14;100034.94;;;3.55;86.03
5755;BME280;2902;42.130;24.732;2023-12-29T05:51:40;100032.19;;;3.47;86.78
5755;BME280;2902;42.130;24.732;2023-12-29T05:54:07;100042.69;;;3.47;86.65
5755;BME280;2902;42.130;24.732;2023-12-29T05:56:34;100049.06;;;3.54;85.83
5755;BME280;2902;42.130;24.732;2023-12-29T05:59:01;100045.47;;;3.55;85.91
5755;BME280;2902;42.130;24.732;2023-12-29T06:01:28;100048.50;;;3.60;85.72
5755;BME280;2902;42.130;24.732;2023-12-29T06:03:54;100034.69;;;3.58;85.32
5755;BME280;2902;42.130;24.732;2023-12-29T06:06:22;100048.50;;;3.60;85.60
5755;BME280;2902;42.130;24.732;2023-12-29T06:08:49;100053.19;;;3.66;86.06
5755;BME280;2902;42.130;24.732;2023-12-29T06:11:16;100053.63;;;3.71;86.19
5755;BME280;2902;42.130;24.732;2023-12-29T06:13:43;100060.09;;;3.67;85.29
5755;BME280;2902;42.130;24.732;2023-12-29T06:16:09;100052.09;;;3.59;85.90
5755;BME280;2902;42.130;24.732;2023-12-29T06:18:36;100050.72;;;3.55;85.80
5755;BME280;2902;42.130;24.732;2023-12-29T06:21:03;100043.53;;;3.57;86.96
5755;BME280;2902;42.130;24.732;2023-12-29T06:23:32;100047.41;;;3.63;87.63
5755;BME280;2902;42.130;24.732;2023-12-29T06:25:58;100056.50;;;3.68;87.65
5755;BME280;2902;42.130;24.732;2023-12-29T06:28:25;100058.72;;;3.82;86.70
5755;BME280;2902;42.130;24.732;2023-12-29T06:30:53;100046.25;;;4.03;86.93
5755;BME280;2902;42.130;24.732;2023-12-29T06:33:20;100055.63;;;4.15;85.11
5755;BME280;2902;42.130;24.732;2023-12-29T06:35:47;100050.03;;;4.37;85.62
5755;BME280;2902;42.130;24.732;2023-12-29T06:38:14;100055.16;;;4.39;83.42
5755;BME280;2902;42.130;24.732;2023-12-29T06:40:42;100043.22;;;4.54;84.79
5755;BME280;2902;42.130;24.732;2023-12-29T06:43:09;100051.44;;;4.68;83.67
5755;BME280;2902;42.130;24.732;2023-12-29T06:45:35;100052.66;;;5.01;82.24
5755;BME280;2902;42.130;24.732;2023-12-29T06:48:02;100045.47;;;5.20;80.90
5755;BME280;2902;42.130;24.732;2023-12-29T06:50:29;100052.19;;;5.50;79.10
5755;BME280;2902;42.130;24.732;2023-12-29T06:52:56;100046.63;;;5.88;78.54
5755;BME280;2902;42.130;24.732;2023-12-29T06:55:24;100058.81;;;6.07;75.65
5755;BME280;2902;42.130;24.732;2023-12-29T06:57:52;100051.22;;;6.29;75.67
5755;BME280;2902;42.130;24.732;2023-12-29T07:00:19;100064.19;;;6.74;74.22
5755;BME280;2902;42.130;24.732;2023-12-29T07:02:46;100062.69;;;7.13;73.53
5755;BME280;2902;42.130;24.732;2023-12-29T07:05:13;100071.03;;;7.42;70.18
5755;BME280;2902;42.130;24.732;2023-12-29T07:07:39;100074.69;;;7.57;70.02
5755;BME280;2902;42.130;24.732;2023-12-29T07:10:07;100067.94;;;7.70;70.12
5755;BME280;2902;42.130;24.732;2023-12-29T07:12:33;100074.75;;;7.97;69.96
5755;BME280;2902;42.130;24.732;2023-12-29T07:15:02;100067.47;;;8.31;68.65
5755;BME280;2902;42.130;24.732;2023-12-29T07:17:28;100062.72;;;8.73;68.16
5755;BME280;2902;42.130;24.732;2023-12-29T07:19:55;100069.56;;;9.06;66.30
5755;BME280;2902;42.130;24.732;2023-12-29T07:22:22;100066.72;;;9.46;64.55
5755;BME280;2902;42.130;24.732;2023-12-29T07:24:49;100070.75;;;9.87;63.81
5755;BME280;2902;42.130;24.732;2023-12-29T07:27:15;100075.00;;;10.18;62.30
5755;BME280;2902;42.130;24.732;2023-12-29T07:29:42;100082.13;;;10.55;60.50
5755;BME280;2902;42.130;24.732;2023-12-29T07:32:10;100085.16;;;10.81;58.23
5755;BME280;2902;42.130;24.732;2023-12-29T07:34:37;100084.06;;;11.04;58.74
5755;BME280;2902;42.130;24.732;2023-12-29T07:37:04;100078.63;;;11.27;56.79
5755;BME280;2902;42.130;24.732;2023-12-29T07:39:30;100076.91;;;11.55;57.59
5755;BME280;2902;42.130;24.732;2023-12-29T07:41:57;100069.44;;;11.80;58.68
5755;BME280;2902;42.130;24.732;2023-12-29T07:44:24;100066.00;;;12.07;54.27
5755;BME280;2902;42.130;24.732;2023-12-29T07:46:51;100055.44;;;12.20;56.91
5755;BME280;2902;42.130;24.732;2023-12-29T07:49:19;100055.38;;;12.34;52.28
5755;BME280;2902;42.130;24.732;2023-12-29T07:51:46;100048.09;;;12.49;52.08
5755;BME280;2902;42.130;24.732;2023-12-29T07:54:13;100043.72;;;12.69;53.91
5755;BME280;2902;42.130;24.732;2023-12-29T07:56:41;100039.44;;;12.75;53.97
5755;BME280;2902;42.130;24.732;2023-12-29T07:59:08;100040.06;;;13.04;51.48
5755;BME280;2902;42.130;24.732;2023-12-29T08:01:34;100042.72;;;12.77;53.07
5755;BME280;2902;42.130;24.732;2023-12-29T08:04:02;100043.56;;;13.11;51.79
5755;BME280;2902;42.130;24.732;2023-12-29T08:06:30;100044.25;;;13.33;50.51
5755;BME280;2902;42.130;24.732;2023-12-29T08:08:57;100040.59;;;13.47;49.91
5755;BME280;2902;42.130;24.732;2023-12-29T08:11:23;100049.47;;;13.60;48.47
5755;BME280;2902;42.130;24.732;2023-12-29T08:13:50;100051.72;;;13.50;48.84
5755;BME280;2902;42.130;24.732;2023-12-29T08:16:17;100062.06;;;13.79;48.58
5755;BME280;2902;42.130;24.732;2023-12-29T08:18:44;100059.19;;;14.00;47.61
5755;BME280;2902;42.130;24.732;2023-12-29T08:21:16;100054.06;;;14.18;47.09
5755;BME280;2902;42.130;24.732;2023-12-29T08:23:45;100056.16;;;14.29;47.50
5755;BME280;2902;42.130;24.732;2023-12-29T08:26:11;100058.81;;;14.49;46.52
5755;BME280;2902;42.130;24.732;2023-12-29T08:28:38;100047.47;;;14.66;45.60
5755;BME280;2902;42.130;24.732;2023-12-29T08:31:06;100050.56;;;14.76;45.72
5755;BME280;2902;42.130;24.732;2023-12-29T08:33:33;100048.69;;;14.77;45.51
5755;BME280;2902;42.130;24.732;2023-12-29T08:36:02;100039.00;;;14.82;45.26
5755;BME280;2902;42.130;24.732;2023-12-29T08:38:29;100048.00;;;15.07;44.79
5755;BME280;2902;42.130;24.732;2023-12-29T08:40:57;100025.66;;;15.33;61.42
5755;BME280;2902;42.130;24.732;2023-12-29T08:43:24;100029.31;;;16.07;57.12
5755;BME280;2902;42.130;24.732;2023-12-29T08:45:51;100031.22;;;16.74;44.90
5755;BME280;2902;42.130;24.732;2023-12-29T08:48:18;100025.09;;;16.85;41.63
5755;BME280;2902;42.130;24.732;2023-12-29T08:50:45;100022.41;;;16.85;42.30
5755;BME280;2902;42.130;24.732;2023-12-29T08:53:12;100028.00;;;16.65;40.67
5755;BME280;2902;42.130;24.732;2023-12-29T08:55:38;100021.00;;;16.64;42.44
5755;BME280;2902;42.130;24.732;2023-12-29T08:58:06;100028.13;;;16.52;42.56
5755;BME280;2902;42.130;24.732;2023-12-29T09:00:33;100029.50;;;16.37;41.39
5755;BME280;2902;42.130;24.732;2023-12-29T09:03:00;100028.50;;;16.31;42.43
5755;BME280;2902;42.130;24.732;2023-12-29T09:05:27;100028.09;;;16.34;41.90
5755;BME280;2902;42.130;24.732;2023-12-29T09:07:53;100022.09;;;16.32;42.83
5755;BME280;2902;42.130;24.732;2023-12-29T09:10:20;100016.69;;;16.39;41.56
5755;BME280;2902;42.130;24.732;2023-12-29T09:12:48;100017.84;;;16.49;40.74
5755;BME280;2902;42.130;24.732;2023-12-29T09:15:16;100010.41;;;16.51;40.34
5755;BME280;2902;42.130;24.732;2023-12-29T09:17:43;100007.50;;;16.53;41.44
5755;BME280;2902;42.130;24.732;2023-12-29T09:20:10;100010.84;;;16.48;40.41
5755;BME280;2902;42.130;24.732;2023-12-29T09:22:37;99997.41;;;16.24;41.22
5755;BME280;2902;42.130;24.732;2023-12-29T09:25:04;99999.59;;;16.33;40.90
5755;BME280;2902;42.130;24.732;2023-12-29T09:27:31;100006.06;;;16.50;40.60
5755;BME280;2902;42.130;24.732;2023-12-29T09:29:58;100004.06;;;16.64;39.57
5755;BME280;2902;42.130;24.732;2023-12-29T09:32:26;100004.16;;;16.93;38.83
5755;BME280;2902;42.130;24.732;2023-12-29T09:34:52;99998.84;;;17.05;37.10
5755;BME280;2902;42.130;24.732;2023-12-29T09:37:19;99996.00;;;17.18;37.19
5755;BME280;2902;42.130;24.732;2023-12-29T09:39:46;99991.66;;;17.35;36.73
5755;BME280;2902;42.130;24.732;2023-12-29T09:42:19;99989.88;;;17.47;36.37
5755;BME280;2902;42.130;24.732;2023-12-29T09:44:49;99984.31;;;17.60;36.32
5755;BME280;2902;42.130;24.732;2023-12-29T09:47:21;99976.38;;;17.65;35.93
5755;BME280;2902;42.130;24.732;2023-12-29T09:49:51;99971.69;;;17.60;34.72
5755;BME280;2902;42.130;24.732;2023-12-29T09:52:20;99969.38;;;17.64;35.54
5755;BME280;2902;42.130;24.732;2023-12-29T09:54:48;99961.09;;;17.65;35.46
5755;BME280;2902;42.130;24.732;2023-12-29T09:57:15;99951.13;;;17.66;35.41
5755;BME280;2902;42.130;24.732;2023-12-29T09:59:42;99920.53;;;17.67;35.42
5755;BME280;2902;42.130;24.732;2023-12-29T10:02:14;99946.63;;;17.89;35.13
5755;BME280;2902;42.130;24.732;2023-12-29T10:04:41;99938.69;;;17.94;34.99
5755;BME280;2902;42.130;24.732;2023-12-29T10:07:15;99932.03;;;17.97;34.95
5755;BME280;2902;42.130;24.732;2023-12-29T10:09:46;99936.56;;;17.85;34.85
5755;BME280;2902;42.130;24.732;2023-12-29T10:12:14;99924.44;;;17.94;35.06
5755;BME280;2902;42.130;24.732;2023-12-29T10:14:46;99919.88;;;18.06;35.28
5755;BME280;2902;42.130;24.732;2023-12-29T10:17:19;99914.97;;;18.14;35.46
5755;BME280;2902;42.130;24.732;2023-12-29T10:19:58;99910.97;;;18.05;35.35
5755;BME280;2902;42.130;24.732;2023-12-29T10:22:38;99906.31;;;18.01;35.30
5755;BME280;2902;42.130;24.732;2023-12-29T10:25:08;99903.13;;;18.04;35.27
5755;BME280;2902;42.130;24.732;2023-12-29T10:27:35;99901.88;;;17.95;35.52
5755;BME280;2902;42.130;24.732;2023-12-29T10:30:02;99899.28;;;18.00;35.46
5755;BME280;2902;42.130;24.732;2023-12-29T10:32:29;99884.22;;;17.99;35.82
5755;BME280;2902;42.130;24.732;2023-12-29T10:35:07;99888.06;;;18.03;34.98
5755;BME280;2902;42.130;24.732;2023-12-29T10:37:36;99890.88;;;18.08;35.51
5755;BME280;2902;42.130;24.732;2023-12-29T10:40:04;99890.31;;;18.06;35.37
5755;BME280;2902;42.130;24.732;2023-12-29T10:42:31;99885.06;;;17.88;35.38
5755;BME280;2902;42.130;24.732;2023-12-29T10:45:06;99887.38;;;17.84;35.77
5755;BME280;2902;42.130;24.732;2023-12-29T10:47:33;99887.97;;;17.86;35.73
5755;BME280;2902;42.130;24.732;2023-12-29T10:50:02;99888.78;;;17.87;35.39
5755;BME280;2902;42.130;24.732;2023-12-29T10:52:30;99879.06;;;17.97;35.33
5755;BME280;2902;42.130;24.732;2023-12-29T10:55:07;99867.97;;;17.94;34.76
5755;BME280;2902;42.130;24.732;2023-12-29T10:57:34;99841.34;;;17.81;34.89
5755;BME280;2902;42.130;24.732;2023-12-29T11:00:02;99865.41;;;17.99;34.96
5755;BME280;2902;42.130;24.732;2023-12-29T11:02:31;99861.19;;;18.03;35.00
5755;BME280;2902;42.130;24.732;2023-12-29T11:05:02;99858.72;;;18.01;34.57
5755;BME280;2902;42.130;24.732;2023-12-29T11:07:36;99847.44;;;17.88;35.01
5755;BME280;2902;42.130;24.732;2023-12-29T11:10:06;99843.56;;;17.84;35.70
5755;BME280;2902;42.130;24.732;2023-12-29T11:12:35;99850.81;;;17.83;35.50
5755;BME280;2902;42.130;24.732;2023-12-29T11:15:03;99841.91;;;17.71;35.81
5755;BME280;2902;42.130;24.732;2023-12-29T11:17:31;99835.25;;;17.74;35.72
5755;BME280;2902;42.130;24.732;2023-12-29T11:19:59;99844.59;;;17.83;35.90
5755;BME280;2902;42.130;24.732;2023-12-29T11:22:28;99835.13;;;18.03;39.18
5755;BME280;2902;42.130;24.732;2023-12-29T11:24:55;99830.19;;;18.12;35.24
5755;BME280;2902;42.130;24.732;2023-12-29T11:27:27;99830.31;;;18.17;35.02
5755;BME280;2902;42.130;24.732;2023-12-29T11:29:57;99835.94;;;18.15;35.08
5755;BME280;2902;42.130;24.732;2023-12-29T11:32:30;99830.31;;;18.17;34.83
5755;BME280;2902;42.130;24.732;2023-12-29T11:35:06;99826.22;;;18.26;34.86
5755;BME280;2902;42.130;24.732;2023-12-29T11:37:51;99820.25;;;18.24;34.54
5755;BME280;2902;42.130;24.732;2023-12-29T11:40:23;99823.53;;;18.26;34.32
5755;BME280;2902;42.130;24.732;2023-12-29T11:42:58;99819.06;;;18.31;33.97
5755;BME280;2902;42.130;24.732;2023-12-29T11:45:29;99818.38;;;18.36;33.12
5755;BME280;2902;42.130;24.732;2023-12-29T11:47:57;99817.91;;;18.39;33.21
5755;BME280;2902;42.130;24.732;2023-12-29T11:50:29;99811.94;;;18.37;33.57
5755;BME280;2902;42.130;24.732;2023-12-29T11:52:56;99808.66;;;18.35;33.20
5755;BME280;2902;42.130;24.732;2023-12-29T11:55:28;99807.84;;;18.23;34.10
5755;BME280;2902;42.130;24.732;2023-12-29T11:57:56;99805.16;;;18.23;34.31
5755;BME280;2902;42.130;24.732;2023-12-29T12:00:43;99806.22;;;18.22;34.20
5755;BME280;2902;42.130;24.732;2023-12-29T12:03:16;99798.84;;;18.17;34.07
5755;BME280;2902;42.130;24.732;2023-12-29T12:05:45;99805.06;;;18.18;33.80
5755;BME280;2902;42.130;24.732;2023-12-29T12:08:26;99807.06;;;18.11;33.46
5755;BME280;2902;42.130;24.732;2023-12-29T12:10:53;99813.97;;;18.07;33.66
5755;BME280;2902;42.130;24.732;2023-12-29T12:13:45;99808.13;;;18.10;33.39
5755;BME280;2902;42.130;24.732;2023-12-29T12:16:49;99797.47;;;18.15;33.47
5755;BME280;2902;42.130;24.732;2023-12-29T12:19:19;99790.59;;;18.07;33.34
5755;BME280;2902;42.130;24.732;2023-12-29T12:21:47;99802.16;;;18.19;33.85
5755;BME280;2902;42.130;24.732;2023-12-29T12:24:18;99805.75;;;18.25;33.92
5755;BME280;2902;42.130;24.732;2023-12-29T12:26:45;99799.88;;;18.28;34.25
5755;BME280;2902;42.130;24.732;2023-12-29T12:29:14;99796.97;;;18.29;34.14
5755;BME280;2902;42.130;24.732;2023-12-29T12:31:54;99798.25;;;18.27;34.52
5755;BME280;2902;42.130;24.732;2023-12-29T12:34:20;99789.94;;;18.28;34.16
5755;BME280;2902;42.130;24.732;2023-12-29T12:36:51;99798.25;;;18.27;33.75
5755;BME280;2902;42.130;24.732;2023-12-29T12:39:18;99795.47;;;18.22;34.24
5755;BME280;2902;42.130;24.732;2023-12-29T12:41:45;99792.69;;;18.17;34.08
5755;BME280;2902;42.130;24.732;2023-12-29T12:44:14;99788.69;;;18.08;34.06
5755;BME280;2902;42.130;24.732;2023-12-29T12:46:51;99793.41;;;18.01;33.85
5755;BME280;2902;42.130;24.732;2023-12-29T12:49:19;99791.75;;;18.00;34.16
5755;BME280;2902;42.130;24.732;2023-12-29T12:51:46;99788.84;;;18.01;34.27
5755;BME280;2902;42.130;24.732;2023-12-29T12:54:13;99791.75;;;18.00;34.92
5755;BME280;2902;42.130;24.732;2023-12-29T12:56:43;99793.28;;;17.96;35.41
5755;BME280;2902;42.130;24.732;2023-12-29T12:59:10;99795.41;;;17.94;35.09
5755;BME280;2902;42.130;24.732;2023-12-29T13:01:39;99783.97;;;17.75;35.43
5755;BME280;2902;42.130;24.732;2023-12-29T13:04:07;99789.34;;;17.75;35.77
5755;BME280;2902;42.130;24.732;2023-12-29T13:06:39;99784.81;;;17.76;35.72
5755;BME280;2902;42.130;24.732;2023-12-29T13:09:07;99784.81;;;17.76;35.90
5755;BME280;2902;42.130;24.732;2023-12-29T13:11:36;99787.34;;;17.71;35.57
5755;BME280;2902;42.130;24.732;2023-12-29T13:14:03;99781.53;;;17.62;35.94